高雄國際航空站 - ATIS

METAR RCKH 010530Z 29011KT 260V330 9999 FEW015 SCT035 BKN200 33/27 Q1004 NOSIG RMK 28011KT/R09 A2965=

站台狀態:Online
最後更新:2018-08-15 05:45:01